Time;durP1;ratioP1;P1;durP2;ratioP2;P2;SDS_P1;SDS_P2;PMS_P1;PMS_P2;Temp;Humidity;BMP_temperature;BMP_pressure;BME280_temperature;BME280_humidity;BME280_pressure;Samples;Min_cycle;Max_cycle;Signal;HPM_P1;HPM_P2
2023/07/28 00:01:44;;;;;;;;;;;;;;;18.01;77.66;99474.98;108048;1254;71672;-72
2023/07/28 00:04:11;;;;;;;;;;;;;;;18.00;77.78;99474.64;107979;1258;72566;-72
2023/07/28 00:06:38;;;;;;;;;;;;;;;18.00;77.77;99476.01;108062;1256;62015;-72
2023/07/28 00:09:05;;;;;;;;;;;;;;;18.00;77.79;99478.65;108058;1258;61150;-72
2023/07/28 00:11:32;;;;;;;;;;;;;;;18.00;77.99;99479.80;108126;1254;74707;-73
2023/07/28 00:13:59;;;;;;;;;;;;;;;17.98;78.02;99483.98;108003;1256;71639;-72
2023/07/28 00:16:26;;;;;;;;;;;;;;;17.91;78.17;99475.14;108011;1254;72783;-72
2023/07/28 00:18:53;;;;;;;;;;;;;;;17.84;78.41;99468.49;108132;1254;61989;-72
2023/07/28 00:21:20;;;;;;;;;;;;;;;17.78;78.84;99468.59;108007;1254;61240;-73
2023/07/28 00:23:46;;;;;;;;;;;;;;;17.76;79.17;99466.96;107691;1254;61103;-71
2023/07/28 00:26:13;;;;;;;;;;;;;;;17.74;79.49;99463.25;108060;1254;71306;-72
2023/07/28 00:28:40;;;;;;;;;;;;;;;17.72;79.80;99461.71;107849;1254;70838;-71
2023/07/28 00:31:07;;;;;;;;;;;;;;;17.70;79.94;99463.19;108016;1254;61485;-72
2023/07/28 00:33:33;;;;;;;;;;;;;;;17.69;80.11;99464.14;108057;1257;59978;-72
2023/07/28 00:36:00;;;;;;;;;;;;;;;17.66;80.16;99464.88;108076;1254;74467;-73
2023/07/28 00:38:27;;;;;;;;;;;;;;;17.63;80.18;99469.39;108020;1258;72966;-72
2023/07/28 00:40:56;;;;;;;;;;;;;;;17.59;80.32;99467.43;108123;1254;71673;-73
2023/07/28 00:43:24;;;;;;;;;;;;;;;17.59;80.60;99464.86;107969;1258;61922;-73
2023/07/28 00:45:51;;;;;;;;;;;;;;;17.59;80.93;99461.31;108044;1254;61231;-72
2023/07/28 00:48:20;;;;;;;;;;;;;;;17.59;81.09;99463.17;108111;1255;74691;-73
2023/07/28 00:50:47;;;;;;;;;;;;;;;17.59;81.34;99462.26;108059;1254;72863;-73
2023/07/28 00:53:14;;;;;;;;;;;;;;;17.57;81.42;99461.70;108082;1257;72511;-72
2023/07/28 00:55:41;;;;;;;;;;;;;;;17.55;81.70;99463.25;108044;1255;61743;-73
2023/07/28 00:58:08;;;;;;;;;;;;;;;17.53;81.90;99462.63;107961;1254;61135;-72
2023/07/28 01:00:35;;;;;;;;;;;;;;;17.52;82.01;99475.73;107962;1255;74395;-73
2023/07/28 01:03:02;;;;;;;;;;;;;;;17.50;82.11;99477.36;108065;1257;72522;-73
2023/07/28 01:05:42;;;;;;;;;;;;;;;17.47;82.38;99477.09;108045;1259;72526;-73
2023/07/28 01:08:15;;;;;;;;;;;;;;;17.45;82.44;99472.66;107948;1257;60555;-73
2023/07/28 01:10:42;;;;;;;;;;;;;;;17.44;82.47;99472.16;107929;1257;61315;-73
2023/07/28 01:13:09;;;;;;;;;;;;;;;17.43;82.67;99475.91;107856;1254;75134;-73
2023/07/28 01:15:36;;;;;;;;;;;;;;;17.40;82.67;99480.06;107987;1254;71752;-73
2023/07/28 01:18:02;;;;;;;;;;;;;;;17.39;82.62;99481.95;107983;1254;72566;-73
2023/07/28 01:20:30;;;;;;;;;;;;;;;17.40;82.66;99487.94;107790;1257;61954;-73
2023/07/28 01:23:17;;;;;;;;;;;;;;;17.41;82.70;99493.00;108021;1256;61080;-73
2023/07/28 01:25:55;;;;;;;;;;;;;;;17.42;82.46;99495.10;108050;1255;74468;-73
2023/07/28 01:28:22;;;;;;;;;;;;;;;17.43;82.27;99497.07;108056;1255;73656;-72
2023/07/28 01:30:49;;;;;;;;;;;;;;;17.46;82.16;99504.48;107966;1256;74026;-74
2023/07/28 01:33:15;;;;;;;;;;;;;;;17.46;81.73;99506.09;108070;1257;61958;-72
2023/07/28 01:35:43;;;;;;;;;;;;;;;17.45;81.55;99503.46;107960;1255;61314;-73
2023/07/28 01:38:10;;;;;;;;;;;;;;;17.45;81.22;99499.70;108061;1257;74730;-71
2023/07/28 01:40:37;;;;;;;;;;;;;;;17.46;80.99;99505.18;107949;1254;72706;-73
2023/07/28 01:43:04;;;;;;;;;;;;;;;17.46;80.70;99508.83;107889;1257;71755;-72
2023/07/28 01:45:31;;;;;;;;;;;;;;;17.47;80.22;99508.16;108013;1254;61703;-72
2023/07/28 01:47:58;;;;;;;;;;;;;;;17.48;80.00;99514.92;107950;1257;61224;-71
2023/07/28 01:50:25;;;;;;;;;;;;;;;17.47;79.73;99512.10;107794;1258;75692;-72
2023/07/28 01:52:51;;;;;;;;;;;;;;;17.47;79.75;99517.82;108010;1259;70411;-72
2023/07/28 01:55:18;;;;;;;;;;;;;;;17.45;79.64;99517.73;108023;1257;72727;-71
2023/07/28 01:57:55;;;;;;;;;;;;;;;17.44;79.56;99518.70;108014;1256;63692;-71
2023/07/28 02:00:22;;;;;;;;;;;;;;;17.42;79.64;99519.17;107887;1257;61275;-71
2023/07/28 02:02:49;;;;;;;;;;;;;;;17.42;79.45;99520.86;107805;1261;74550;-71
2023/07/28 02:05:16;;;;;;;;;;;;;;;17.43;79.33;99526.13;108089;1255;72763;-72
2023/07/28 02:07:43;;;;;;;;;;;;;;;17.44;79.20;99534.83;107935;1258;72542;-72
2023/07/28 02:10:10;;;;;;;;;;;;;;;17.46;79.20;99539.90;107962;1256;61122;-72
2023/07/28 02:12:37;;;;;;;;;;;;;;;17.47;79.26;99536.55;108077;1254;61070;-73
2023/07/28 02:15:05;;;;;;;;;;;;;;;17.46;79.17;99539.45;107864;1254;74604;-72
2023/07/28 02:17:32;;;;;;;;;;;;;;;17.46;79.15;99536.42;108003;1254;72431;-72
2023/07/28 02:19:59;;;;;;;;;;;;;;;17.50;78.96;99542.13;107858;1255;73909;-72
2023/07/28 02:22:26;;;;;;;;;;;;;;;17.52;78.49;99545.31;107955;1254;61733;-71
2023/07/28 02:24:53;;;;;;;;;;;;;;;17.54;78.16;99546.54;107961;1254;59847;-72
2023/07/28 02:27:20;;;;;;;;;;;;;;;17.41;78.47;99547.48;108018;1254;75257;-72
2023/07/28 02:29:48;;;;;;;;;;;;;;;17.37;78.63;99550.90;107904;1257;72767;-71
2023/07/28 02:32:15;;;;;;;;;;;;;;;17.38;78.57;99545.54;108066;1257;72743;-72
2023/07/28 02:34:42;;;;;;;;;;;;;;;17.39;78.74;99542.57;107898;1256;61684;-72
2023/07/28 02:37:09;;;;;;;;;;;;;;;17.40;78.59;99543.45;108131;1259;61305;-71
2023/07/28 02:39:35;;;;;;;;;;;;;;;17.41;78.57;99534.30;108003;1255;74622;-72
2023/07/28 02:42:02;;;;;;;;;;;;;;;17.43;78.42;99535.37;108040;1257;61215;-72
2023/07/28 02:44:29;;;;;;;;;;;;;;;17.43;77.81;99538.09;108030;1255;72703;-72
2023/07/28 02:46:56;;;;;;;;;;;;;;;17.46;77.78;99543.67;108086;1256;61920;-71
2023/07/28 02:49:23;;;;;;;;;;;;;;;17.48;77.34;99545.44;107912;1254;60188;-73
2023/07/28 02:51:50;;;;;;;;;;;;;;;17.50;77.05;99538.43;107993;1256;73165;-72
2023/07/28 02:54:16;;;;;;;;;;;;;;;17.52;76.76;99536.04;108013;1255;61093;-71
2023/07/28 02:56:44;;;;;;;;;;;;;;;17.53;76.41;99549.42;108047;1258;72667;-72
2023/07/28 02:59:11;;;;;;;;;;;;;;;17.56;76.15;99544.30;108016;1260;62013;-72
2023/07/28 03:01:38;;;;;;;;;;;;;;;17.62;76.03;99548.15;107825;1262;61370;-72
2023/07/28 03:04:06;;;;;;;;;;;;;;;17.64;75.63;99550.67;107852;1260;74682;-72
2023/07/28 03:06:47;;;;;;;;;;;;;;;17.66;75.31;99552.82;108112;1254;72788;-72
2023/07/28 03:09:15;;;;;;;;;;;;;;;17.67;75.12;99552.81;107881;1258;73374;-72
2023/07/28 03:11:51;;;;;;;;;;;;;;;17.69;74.86;99557.74;107902;1259;61805;-72
2023/07/28 03:14:20;;;;;;;;;;;;;;;17.71;74.71;99563.36;108005;1255;60397;-72
2023/07/28 03:16:46;;;;;;;;;;;;;;;17.72;74.68;99562.88;107967;1260;74442;-72
2023/07/28 03:19:14;;;;;;;;;;;;;;;17.76;74.79;99567.81;107745;1254;72625;-72
2023/07/28 03:21:41;;;;;;;;;;;;;;;17.83;74.15;99580.97;107926;1260;73801;-73
2023/07/28 03:24:08;;;;;;;;;;;;;;;17.75;74.02;99580.34;108014;1259;62084;-72
2023/07/28 03:26:35;;;;;;;;;;;;;;;17.85;73.77;99576.66;107939;1260;59218;-73
2023/07/28 03:29:03;;;;;;;;;;;;;;;17.83;73.60;99580.75;107986;1254;74675;-73
2023/07/28 03:31:29;;;;;;;;;;;;;;;17.81;73.57;99579.74;107909;1257;71442;-71
2023/07/28 03:33:56;;;;;;;;;;;;;;;17.94;73.07;99574.52;108079;1254;72709;-71
2023/07/28 03:36:25;;;;;;;;;;;;;;;18.06;72.69;99577.27;107930;1257;61452;-72
2023/07/28 03:38:52;;;;;;;;;;;;;;;18.10;72.35;99586.41;107886;1258;61092;-72
2023/07/28 03:41:19;;;;;;;;;;;;;;;18.11;71.82;99588.48;107884;1261;74683;-72
2023/07/28 03:43:46;;;;;;;;;;;;;;;18.12;71.51;99585.27;107897;1254;73841;-72
2023/07/28 03:46:13;;;;;;;;;;;;;;;18.13;71.14;99577.98;107760;1257;73788;-72
2023/07/28 03:48:40;;;;;;;;;;;;;;;18.15;71.20;99580.99;107774;1260;61825;-72
2023/07/28 03:51:06;;;;;;;;;;;;;;;18.17;71.10;99585.23;108092;1255;61183;-73
2023/07/28 03:53:35;;;;;;;;;;;;;;;18.17;70.87;99590.56;108107;1257;74665;-72
2023/07/28 03:56:02;;;;;;;;;;;;;;;18.17;70.82;99590.02;108035;1259;73185;-74
2023/07/28 03:58:29;;;;;;;;;;;;;;;18.18;70.71;99595.16;108119;1254;73989;-73
2023/07/28 04:00:56;;;;;;;;;;;;;;;18.16;70.49;99593.74;108041;1256;62462;-73
2023/07/28 04:03:23;;;;;;;;;;;;;;;18.15;70.45;99592.70;107999;1256;61343;-72
2023/07/28 04:05:54;;;;;;;;;;;;;;;18.14;70.43;99593.64;108040;1257;76598;-73
2023/07/28 04:08:21;;;;;;;;;;;;;;;18.14;70.49;99589.30;108019;1254;71465;-72
2023/07/28 04:10:48;;;;;;;;;;;;;;;18.06;70.69;99589.38;107932;1254;72743;-72
2023/07/28 04:13:14;;;;;;;;;;;;;;;17.97;71.07;99591.39;108099;1254;63318;-72
2023/07/28 04:15:41;;;;;;;;;;;;;;;17.98;71.29;99596.98;107984;1256;61467;-72
2023/07/28 04:18:08;;;;;;;;;;;;;;;18.00;71.23;99598.98;107855;1260;75658;-72
2023/07/28 04:20:35;;;;;;;;;;;;;;;18.02;71.08;99601.52;108040;1257;72771;-72
2023/07/28 04:23:01;;;;;;;;;;;;;;;18.03;70.95;99601.20;107880;1259;72729;-72
2023/07/28 04:25:31;;;;;;;;;;;;;;;17.82;71.42;99596.66;107840;1254;62076;-75
2023/07/28 04:28:00;;;;;;;;;;;;;;;17.50;72.65;99595.07;107881;1255;61189;-73
2023/07/28 04:30:31;;;;;;;;;;;;;;;17.47;73.14;99601.80;107950;1254;74618;-72
2023/07/28 04:32:58;;;;;;;;;;;;;;;17.44;73.18;99596.54;107651;1254;75710;-72
2023/07/28 04:35:32;;;;;;;;;;;;;;;17.43;73.33;99592.30;107885;1255;72405;-72
2023/07/28 04:38:11;;;;;;;;;;;;;;;17.43;73.31;99592.78;107782;1258;64725;-73
2023/07/28 04:40:48;;;;;;;;;;;;;;;17.42;73.52;99594.98;107954;1260;61131;-73
2023/07/28 04:43:17;;;;;;;;;;;;;;;17.43;73.83;99592.63;107930;1254;74752;-73
2023/07/28 04:45:49;;;;;;;;;;;;;;;17.46;73.80;99589.35;108116;1257;72779;-72
2023/07/28 04:48:19;;;;;;;;;;;;;;;17.51;73.83;99586.45;108022;1254;72666;-72
2023/07/28 04:50:46;;;;;;;;;;;;;;;17.56;73.63;99594.30;107758;1254;63062;-73
2023/07/28 04:53:21;;;;;;;;;;;;;;;17.57;73.29;99595.02;108077;1254;61132;-71
2023/07/28 04:55:58;;;;;;;;;;;;;;;17.59;72.92;99595.62;107793;1254;74525;-72
2023/07/28 04:58:25;;;;;;;;;;;;;;;17.62;72.19;99603.70;107976;1254;72752;-72
2023/07/28 05:00:53;;;;;;;;;;;;;;;17.66;71.94;99602.54;107930;1254;72591;-72
2023/07/28 05:03:20;;;;;;;;;;;;;;;17.52;72.00;99592.83;107740;1257;61926;-72
2023/07/28 05:05:53;;;;;;;;;;;;;;;17.49;72.22;99596.64;107966;1260;61209;-72
2023/07/28 05:08:20;;;;;;;;;;;;;;;17.47;72.37;99595.40;107747;1260;75172;-72
2023/07/28 05:10:47;;;;;;;;;;;;;;;17.46;72.61;99590.58;107916;1254;72425;-72
2023/07/28 05:13:14;;;;;;;;;;;;;;;17.50;72.79;99585.33;108013;1254;72736;-72
2023/07/28 05:15:49;;;;;;;;;;;;;;;17.57;72.89;99589.91;107899;1254;61812;-72
2023/07/28 05:18:23;;;;;;;;;;;;;;;17.65;72.69;99587.35;107836;1256;61112;-71
2023/07/28 05:21:09;;;;;;;;;;;;;;;17.74;72.08;99591.05;107917;1254;76174;-72
2023/07/28 05:23:36;;;;;;;;;;;;;;;17.86;71.49;99585.23;107828;1254;72625;-72
2023/07/28 05:26:02;;;;;;;;;;;;;;;17.97;71.33;99586.37;107750;1260;61125;-72
2023/07/28 05:28:31;;;;;;;;;;;;;;;18.03;70.76;99592.67;108042;1254;61887;-71
2023/07/28 05:31:05;;;;;;;;;;;;;;;18.08;70.27;99592.61;107948;1255;61132;-73
2023/07/28 05:33:32;;;;;;;;;;;;;;;18.29;69.67;99594.98;107840;1254;73243;-71
2023/07/28 05:36:02;;;;;;;;;;;;;;;18.63;68.18;99587.60;107959;1254;74057;-72
2023/07/28 05:38:32;;;;;;;;;;;;;;;18.68;67.26;99594.88;107994;1259;72745;-71
2023/07/28 05:41:03;;;;;;;;;;;;;;;18.55;67.09;99593.73;107982;1254;65758;-72
2023/07/28 05:43:30;;;;;;;;;;;;;;;18.30;67.94;99600.05;107870;1254;61362;-72
2023/07/28 05:45:58;;;;;;;;;;;;;;;18.37;67.84;99602.37;107868;1254;74665;-72
2023/07/28 05:48:25;;;;;;;;;;;;;;;18.43;67.50;99597.35;107914;1260;72546;-71
2023/07/28 05:50:53;;;;;;;;;;;;;;;18.46;67.19;99604.51;108026;1254;72558;-71
2023/07/28 05:53:21;;;;;;;;;;;;;;;18.50;66.79;99601.09;107914;1257;61897;-71
2023/07/28 05:55:50;;;;;;;;;;;;;;;18.54;66.49;99611.39;107896;1254;61887;-72
2023/07/28 05:58:17;;;;;;;;;;;;;;;18.45;66.44;99609.39;107826;1254;74820;-73
2023/07/28 06:00:44;;;;;;;;;;;;;;;18.40;66.45;99611.98;107803;1257;71901;-73
2023/07/28 06:03:17;;;;;;;;;;;;;;;18.41;66.60;99614.89;107989;1254;72430;-71
2023/07/28 06:05:55;;;;;;;;;;;;;;;18.43;66.58;99619.91;107905;1256;62909;-72
2023/07/28 06:08:22;;;;;;;;;;;;;;;18.49;66.55;99615.65;107805;1254;60659;-72
2023/07/28 06:10:49;;;;;;;;;;;;;;;18.63;66.54;99623.55;107845;1260;75065;-72
2023/07/28 06:13:16;;;;;;;;;;;;;;;18.77;66.39;99626.05;107927;1260;72825;-70
2023/07/28 06:15:43;;;;;;;;;;;;;;;18.87;65.61;99633.23;107735;1260;72058;-73
2023/07/28 06:18:10;;;;;;;;;;;;;;;18.94;65.06;99640.27;107864;1254;61787;-73
2023/07/28 06:20:38;;;;;;;;;;;;;;;18.95;64.19;99634.41;107869;1257;61247;-73
2023/07/28 06:23:04;;;;;;;;;;;;;;;18.99;64.31;99628.91;107839;1257;74530;-72
2023/07/28 06:25:31;;;;;;;;;;;;;;;19.19;64.01;99626.08;107945;1258;72749;-72
2023/07/28 06:28:01;;;;;;;;;;;;;;;19.31;63.74;99626.77;107898;1254;72674;-73
2023/07/28 06:30:29;;;;;;;;;;;;;;;19.36;63.28;99623.83;107827;1257;63083;-72
2023/07/28 06:32:55;;;;;;;;;;;;;;;19.44;62.64;99624.33;107967;1256;61106;-72
2023/07/28 06:35:22;;;;;;;;;;;;;;;19.60;61.94;99632.46;107769;1257;74603;-71
2023/07/28 06:37:49;;;;;;;;;;;;;;;19.75;61.22;99636.45;107839;1260;72370;-71
2023/07/28 06:40:16;;;;;;;;;;;;;;;19.92;60.77;99633.41;107904;1254;71798;-73
2023/07/28 06:42:43;;;;;;;;;;;;;;;20.07;60.53;99628.96;107705;1254;61955;-72
2023/07/28 06:45:10;;;;;;;;;;;;;;;20.20;59.89;99628.66;108002;1254;61330;-74
2023/07/28 06:47:37;;;;;;;;;;;;;;;20.30;59.16;99632.17;108120;1259;73944;-72
2023/07/28 06:50:05;;;;;;;;;;;;;;;20.37;58.03;99636.86;108112;1254;72763;-75
2023/07/28 06:52:32;;;;;;;;;;;;;;;20.43;57.88;99639.03;107768;1257;72572;-73
2023/07/28 06:54:59;;;;;;;;;;;;;;;20.46;57.60;99637.58;107751;1256;61226;-72
2023/07/28 06:57:27;;;;;;;;;;;;;;;20.49;57.82;99633.78;108033;1259;61164;-71
2023/07/28 06:59:55;;;;;;;;;;;;;;;20.49;57.82;99639.91;108002;1254;75202;-72
2023/07/28 07:02:22;;;;;;;;;;;;;;;20.48;58.08;99637.64;107981;1254;72772;-73
2023/07/28 07:04:48;;;;;;;;;;;;;;;20.50;58.04;99632.78;107859;1254;71133;-72
2023/07/28 07:07:15;;;;;;;;;;;;;;;20.46;58.11;99636.81;107884;1254;61125;-73
2023/07/28 07:09:42;;;;;;;;;;;;;;;20.44;58.21;99631.33;107971;1255;61070;-72
2023/07/28 07:12:09;;;;;;;;;;;;;;;20.46;57.94;99634.63;107612;1254;76694;-72
2023/07/28 07:14:36;;;;;;;;;;;;;;;20.53;57.90;99639.42;108008;1254;72572;-71
2023/07/28 07:17:06;;;;;;;;;;;;;;;20.57;56.65;99638.85;107964;1254;72382;-72
2023/07/28 07:19:33;;;;;;;;;;;;;;;20.61;56.49;99640.42;108000;1254;61390;-73
2023/07/28 07:22:01;;;;;;;;;;;;;;;20.66;56.31;99635.81;107995;1254;61177;-71
2023/07/28 07:24:28;;;;;;;;;;;;;;;20.71;55.80;99634.55;108063;1254;74727;-72
2023/07/28 07:26:55;;;;;;;;;;;;;;;20.77;55.64;99644.11;107979;1258;74037;-72
2023/07/28 07:29:23;;;;;;;;;;;;;;;20.83;54.96;99643.64;108118;1254;73477;-72
2023/07/28 07:31:54;;;;;;;;;;;;;;;20.90;55.29;99644.99;107976;1260;62256;-70
2023/07/28 07:34:22;;;;;;;;;;;;;;;20.99;54.26;99647.39;107936;1254;61127;-71
2023/07/28 07:36:52;;;;;;;;;;;;;;;21.10;54.35;99650.07;107831;1254;73460;-72
2023/07/28 07:39:18;;;;;;;;;;;;;;;21.24;53.67;99654.30;108189;1254;74967;-73
2023/07/28 07:41:45;;;;;;;;;;;;;;;21.33;53.48;99656.32;107881;1260;72730;-72
2023/07/28 07:44:12;;;;;;;;;;;;;;;21.44;53.63;99653.41;107879;1257;61289;-72
2023/07/28 07:46:39;;;;;;;;;;;;;;;21.57;53.45;99657.21;107873;1254;61128;-71
2023/07/28 07:49:07;;;;;;;;;;;;;;;21.69;52.68;99659.13;108037;1254;75683;-72
2023/07/28 07:51:34;;;;;;;;;;;;;;;21.77;52.00;99657.99;107935;1254;72367;-72
2023/07/28 07:54:02;;;;;;;;;;;;;;;21.87;52.56;99660.08;108007;1254;72699;-72
2023/07/28 07:56:28;;;;;;;;;;;;;;;22.00;53.21;99664.47;108034;1254;60084;-72
2023/07/28 07:58:55;;;;;;;;;;;;;;;22.14;52.34;99668.82;107897;1256;60940;-71
2023/07/28 08:01:22;;;;;;;;;;;;;;;22.23;51.93;99665.46;107861;1254;76902;-72
2023/07/28 08:03:49;;;;;;;;;;;;;;;22.29;50.80;99664.01;107911;1254;72964;-71
2023/07/28 08:06:16;;;;;;;;;;;;;;;22.29;49.64;99666.12;107866;1254;72896;-72
2023/07/28 08:08:43;;;;;;;;;;;;;;;22.29;49.40;99660.53;107809;1254;61132;-72
2023/07/28 08:11:10;;;;;;;;;;;;;;;22.34;49.70;99667.71;107807;1259;61110;-73
2023/07/28 08:13:37;;;;;;;;;;;;;;;22.41;49.95;99672.52;107798;1257;73471;-72
2023/07/28 08:16:04;;;;;;;;;;;;;;;22.47;49.55;99672.55;107893;1254;72728;-73
2023/07/28 08:18:33;;;;;;;;;;;;;;;22.51;48.87;99674.04;107782;1254;73805;-72
2023/07/28 08:21:00;;;;;;;;;;;;;;;22.51;48.34;99669.28;107808;1257;61253;-74
2023/07/28 08:23:30;;;;;;;;;;;;;;;22.51;47.66;99671.71;107593;1254;61234;-71
2023/07/28 08:25:59;;;;;;;;;;;;;;;22.55;47.65;99676.83;107912;1254;74926;-71
2023/07/28 08:28:26;;;;;;;;;;;;;;;22.63;47.61;99674.57;107840;1254;72643;-71
2023/07/28 08:30:57;;;;;;;;;;;;;;;22.69;46.92;99676.17;107981;1254;72769;-71
2023/07/28 08:33:24;;;;;;;;;;;;;;;22.76;47.21;99681.27;107884;1254;61106;-70
2023/07/28 08:35:51;;;;;;;;;;;;;;;22.87;47.47;99687.31;107847;1254;60425;-71
2023/07/28 08:38:19;;;;;;;;;;;;;;;22.96;47.80;99687.42;107927;1254;73242;-72
2023/07/28 08:40:45;;;;;;;;;;;;;;;23.03;46.75;99688.88;107951;1254;72610;-72
2023/07/28 08:43:13;;;;;;;;;;;;;;;23.08;46.81;99690.75;107987;1255;73819;-72
2023/07/28 08:45:39;;;;;;;;;;;;;;;23.08;45.65;99687.27;107846;1254;61167;-72
2023/07/28 08:48:06;;;;;;;;;;;;;;;23.04;45.38;99690.61;108130;1257;61373;-71
2023/07/28 08:50:34;;;;;;;;;;;;;;;22.98;45.30;99695.80;107832;1254;75881;-71
2023/07/28 08:53:01;;;;;;;;;;;;;;;22.96;44.99;99693.66;107743;1254;71796;-73
2023/07/28 08:55:28;;;;;;;;;;;;;;;22.99;45.39;99701.66;107770;1254;72331;-73
2023/07/28 08:57:55;;;;;;;;;;;;;;;23.04;45.57;99701.91;107759;1259;61365;-77
2023/07/28 09:00:21;;;;;;;;;;;;;;;23.12;45.44;99703.21;107871;1254;59905;-71
2023/07/28 09:02:48;;;;;;;;;;;;;;;23.21;45.72;99707.64;107560;1254;75894;-72
2023/07/28 09:05:19;;;;;;;;;;;;;;;23.23;44.67;99708.39;107716;1255;72596;-72
2023/07/28 09:07:47;;;;;;;;;;;;;;;23.24;44.53;99704.42;107847;1256;72491;-71
2023/07/28 09:10:14;;;;;;;;;;;;;;;23.36;45.16;99703.61;107879;1254;61566;-72
2023/07/28 09:12:44;;;;;;;;;;;;;;;23.35;44.72;99704.30;107816;1254;61161;-71
2023/07/28 09:15:11;;;;;;;;;;;;;;;23.30;44.55;99711.23;107778;1254;72533;-72
2023/07/28 09:17:41;;;;;;;;;;;;;;;23.28;44.95;99714.92;107902;1255;72528;-72
2023/07/28 09:20:09;;;;;;;;;;;;;;;23.28;44.72;99715.33;107955;1256;72198;-72
2023/07/28 09:22:36;;;;;;;;;;;;;;;23.28;44.81;99718.21;107739;1254;61205;-72
2023/07/28 09:25:11;;;;;;;;;;;;;;;23.37;44.74;99713.83;107857;1254;61137;-71
2023/07/28 09:27:38;;;;;;;;;;;;;;;23.37;44.62;99711.34;107668;1254;75718;-71
2023/07/28 09:30:07;;;;;;;;;;;;;;;23.25;44.25;99715.26;107852;1254;72125;-72
2023/07/28 09:32:36;;;;;;;;;;;;;;;23.28;44.11;99714.92;107925;1254;73740;-72
2023/07/28 09:35:10;;;;;;;;;;;;;;;23.37;44.26;99712.59;107945;1259;61205;-71
2023/07/28 09:37:39;;;;;;;;;;;;;;;23.51;44.14;99707.69;107855;1254;61823;-72
2023/07/28 09:40:09;;;;;;;;;;;;;;;23.75;43.63;99707.92;107778;1254;75587;-74
2023/07/28 09:42:37;;;;;;;;;;;;;;;23.88;43.18;99709.38;107826;1254;73983;-72
2023/07/28 09:45:05;;;;;;;;;;;;;;;23.93;42.46;99715.45;107707;1254;71262;-71
2023/07/28 09:47:33;;;;;;;;;;;;;;;23.90;42.24;99719.15;107983;1254;61816;-71
2023/07/28 09:50:00;;;;;;;;;;;;;;;23.90;42.59;99717.90;107881;1254;61145;-71
2023/07/28 09:52:27;;;;;;;;;;;;;;;23.93;42.19;99715.05;107788;1254;75993;-71
2023/07/28 09:54:54;;;;;;;;;;;;;;;23.97;42.57;99713.64;107952;1257;74167;-72
2023/07/28 09:57:21;;;;;;;;;;;;;;;24.07;42.86;99713.46;107652;1255;72266;-70
2023/07/28 09:59:47;;;;;;;;;;;;;;;24.06;42.17;99712.45;107911;1254;60445;-72
2023/07/28 10:02:14;;;;;;;;;;;;;;;24.12;41.51;99713.77;108066;1255;60110;-71
2023/07/28 10:04:41;;;;;;;;;;;;;;;24.14;41.60;99719.64;108012;1254;74485;-71
2023/07/28 10:07:08;;;;;;;;;;;;;;;24.14;42.26;99719.73;107932;1254;72457;-73
2023/07/28 10:09:34;;;;;;;;;;;;;;;24.22;41.78;99721.16;107989;1256;72574;-71
2023/07/28 10:12:03;;;;;;;;;;;;;;;24.28;41.15;99717.80;108077;1254;61132;-71
2023/07/28 10:14:30;;;;;;;;;;;;;;;24.31;40.55;99716.99;108060;1254;61243;-73
2023/07/28 10:16:59;;;;;;;;;;;;;;;24.28;40.20;99710.95;108107;1254;73044;-71
2023/07/28 10:19:28;;;;;;;;;;;;;;;24.20;40.23;99705.54;107988;1254;72527;-71
2023/07/28 10:21:59;;;;;;;;;;;;;;;24.15;40.76;99705.54;108009;1259;75154;-71
2023/07/28 10:24:44;;;;;;;;;;;;;;;24.14;40.97;99706.08;107889;1258;61079;-74
2023/07/28 10:27:11;;;;;;;;;;;;;;;24.04;40.71;99710.85;107938;1255;61380;-74
2023/07/28 10:29:38;;;;;;;;;;;;;;;23.89;40.84;99713.77;107722;1254;74758;-75
2023/07/28 10:32:05;;;;;;;;;;;;;;;23.82;40.79;99711.02;107996;1259;72490;-75
2023/07/28 10:34:32;;;;;;;;;;;;;;;23.87;41.07;99703.29;107990;1254;72730;-76
2023/07/28 10:36:59;;;;;;;;;;;;;;;23.95;40.96;99701.45;107740;1256;61836;-75
2023/07/28 10:39:26;;;;;;;;;;;;;;;24.07;40.39;99703.10;107981;1254;61476;-75
2023/07/28 10:42:06;;;;;;;;;;;;;;;24.20;39.78;99696.26;108122;1259;74457;-76
2023/07/28 10:44:34;;;;;;;;;;;;;;;24.24;39.16;99694.83;108028;1254;72800;-75
2023/07/28 10:47:02;;;;;;;;;;;;;;;24.24;38.61;99691.94;108060;1254;71168;-75
2023/07/28 10:49:29;;;;;;;;;;;;;;;24.26;38.44;99692.20;107737;1258;62974;-75
2023/07/28 10:51:56;;;;;;;;;;;;;;;24.31;38.15;99692.27;108009;1255;60955;-77
2023/07/28 10:54:23;;;;;;;;;;;;;;;24.35;37.74;99689.90;107918;1254;73945;-76
2023/07/28 10:56:50;;;;;;;;;;;;;;;24.42;37.35;99692.50;108031;1254;73981;-76
2023/07/28 10:59:16;;;;;;;;;;;;;;;24.49;36.65;99693.01;107803;1254;72537;-76
2023/07/28 11:01:43;;;;;;;;;;;;;;;24.54;35.60;99698.42;107933;1254;61625;-75
2023/07/28 11:04:17;;;;;;;;;;;;;;;24.52;35.76;99691.41;107984;1254;61019;-77
2023/07/28 11:06:46;;;;;;;;;;;;;;;24.55;36.02;99687.77;107958;1256;74712;-76
2023/07/28 11:09:14;;;;;;;;;;;;;;;24.64;35.82;99685.83;92891;1254;10002102;-75
2023/07/28 11:11:41;;;;;;;;;;;;;;;24.75;35.73;99687.90;94095;1256;10001788;-76
2023/07/28 11:14:13;;;;;;;;;;;;;;;24.87;34.93;99686.23;109102;1256;59379;-75
2023/07/28 11:16:44;;;;;;;;;;;;;;;24.93;34.03;99686.77;107977;1254;74564;-75
2023/07/28 11:19:11;;;;;;;;;;;;;;;24.97;34.73;99693.13;107908;1254;74006;-75
2023/07/28 11:21:38;;;;;;;;;;;;;;;25.01;34.54;99694.98;107800;1254;73117;-74
2023/07/28 11:24:06;;;;;;;;;;;;;;;25.05;34.03;99688.52;107906;1257;61265;-74
2023/07/28 11:26:34;;;;;;;;;;;;;;;25.06;33.94;99690.72;107827;1254;61157;-78
2023/07/28 11:29:01;;;;;;;;;;;;;;;25.10;33.59;99691.46;107858;1254;76345;-81
2023/07/28 11:31:28;;;;;;;;;;;;;;;25.14;33.13;99693.40;107909;1254;74038;-76
2023/07/28 11:33:55;;;;;;;;;;;;;;;25.16;32.64;99698.88;108086;1254;246785;-72
2023/07/28 11:36:25;;;;;;;;;;;;;;;25.14;32.96;99696.13;109133;1255;60341;-71
2023/07/28 11:38:52;;;;;;;;;;;;;;;25.17;33.14;99702.18;108449;1256;61067;-72
2023/07/28 11:41:19;;;;;;;;;;;;;;;25.22;32.52;99707.70;107918;1254;74489;-73
2023/07/28 11:43:49;;;;;;;;;;;;;;;25.27;32.48;99705.46;107885;1256;72751;-73
2023/07/28 11:46:31;;;;;;;;;;;;;;;25.33;31.93;99711.77;107910;1254;73791;-73
2023/07/28 11:49:08;;;;;;;;;;;;;;;25.39;32.59;99719.25;107830;1254;61858;-73
2023/07/28 11:51:39;;;;;;;;;;;;;;;25.46;33.15;99717.04;107826;1254;60203;-73
2023/07/28 11:54:07;;;;;;;;;;;;;;;25.55;32.99;99719.29;107760;1254;74465;-73
2023/07/28 11:56:34;;;;;;;;;;;;;;;25.60;33.05;99722.70;108869;1254;74541;-73
2023/07/28 11:59:02;;;;;;;;;;;;;;;25.63;32.98;99727.95;108883;1254;72604;-73
2023/07/28 12:01:29;;;;;;;;;;;;;;;25.65;32.58;99726.17;107794;1254;61279;-72
2023/07/28 12:04:00;;;;;;;;;;;;;;;25.68;32.10;99711.98;107804;1254;61272;-72
2023/07/28 12:06:27;;;;;;;;;;;;;;;25.75;33.43;99715.06;107888;1254;75856;-72
2023/07/28 12:09:04;;;;;;;;;;;;;;;25.84;33.57;99719.77;107793;1254;72737;-72
2023/07/28 12:11:34;;;;;;;;;;;;;;;25.94;33.86;99716.16;107940;1259;72358;-72
2023/07/28 12:14:04;;;;;;;;;;;;;;;26.05;33.64;99716.23;107920;1254;61333;-71
2023/07/28 12:16:42;;;;;;;;;;;;;;;26.16;33.34;99714.83;107961;1254;61199;-72
2023/07/28 12:19:12;;;;;;;;;;;;;;;26.30;33.27;99722.61;108093;1254;74964;-71
2023/07/28 12:21:39;;;;;;;;;;;;;;;26.35;32.57;99721.63;107981;1258;73739;-71
2023/07/28 12:24:07;;;;;;;;;;;;;;;26.38;32.93;99718.91;107903;1255;71712;-72
2023/07/28 12:26:35;;;;;;;;;;;;;;;26.42;32.44;99716.59;107908;1257;61593;-72
2023/07/28 12:29:06;;;;;;;;;;;;;;;26.39;32.06;99719.23;108038;1254;61100;-71
2023/07/28 12:31:35;;;;;;;;;;;;;;;26.27;32.28;99714.95;107860;1254;74615;-72
2023/07/28 12:34:13;;;;;;;;;;;;;;;26.08;31.96;99726.02;107796;1257;72536;-72
2023/07/28 12:36:52;;;;;;;;;;;;;;;25.92;32.23;99717.80;107982;1258;72584;-72
2023/07/28 12:39:20;;;;;;;;;;;;;;;25.86;32.70;99718.92;107776;1257;61122;-79
2023/07/28 12:41:50;;;;;;;;;;;;;;;25.89;31.90;99715.98;107815;1254;61115;-74